Time;durP1;ratioP1;P1;durP2;ratioP2;P2;SDS_P1;SDS_P2;PMS_P1;PMS_P2;Temp;Humidity;BMP_temperature;BMP_pressure;BME280_temperature;BME280_humidity;BME280_pressure;Samples;Min_cycle;Max_cycle;Signal;HPM_P1;HPM_P2
2023/06/17 00:01:34;;;;;;;18.85;13.57;;;;;;;;;;5070109;28;20040;-63
2023/06/17 00:04:02;;;;;;;18.35;13.00;;;;;;;;;;5069879;28;20090;-66
2023/06/17 00:06:28;;;;;;;18.33;12.95;;;;;;;;;;5051861;28;20361;-64
2023/06/17 00:08:54;;;;;;;18.00;12.85;;;;;;;;;;5052088;28;20469;-63
2023/06/17 00:11:20;;;;;;;18.35;12.38;;;;;;;;;;5070094;28;20017;-63
2023/06/17 00:13:46;;;;;;;18.75;12.65;;;;;;;;;;5051827;28;20024;-63
2023/06/17 00:16:12;;;;;;;18.15;13.27;;;;;;;;;;5069751;28;20497;-64
2023/06/17 00:18:41;;;;;;;17.17;12.52;;;;;;;;;;5070229;28;20046;-63
2023/06/17 00:21:08;;;;;;;16.85;12.43;;;;;;;;;;5069875;28;20469;-63
2023/06/17 00:23:34;;;;;;;18.70;12.03;;;;;;;;;;5071720;28;20027;-63
2023/06/17 00:26:01;;;;;;;40.28;32.33;;;;;;;;;;5055400;28;20805;-63
2023/06/17 00:28:27;;;;;;;21.63;16.65;;;;;;;;;;5079645;28;20455;-64
2023/06/17 00:30:53;;;;;;;19.73;12.55;;;;;;;;;;5087506;28;20016;-63
2023/06/17 00:33:19;;;;;;;20.23;13.15;;;;;;;;;;5089239;28;20659;-63
2023/06/17 00:35:45;;;;;;;17.50;12.00;;;;;;;;;;5082170;28;20028;-61
2023/06/17 00:38:11;;;;;;;18.75;12.38;;;;;;;;;;5069907;28;20024;-61
2023/06/17 00:40:37;;;;;;;18.05;12.77;;;;;;;;;;5093949;28;20028;-62
2023/06/17 00:43:03;;;;;;;18.77;12.90;;;;;;;;;;5093925;28;20380;-63
2023/06/17 00:45:29;;;;;;;18.23;12.52;;;;;;;;;;5085039;28;20027;-63
2023/06/17 00:47:56;;;;;;;16.85;11.65;;;;;;;;;;5063131;28;20027;-62
2023/06/17 00:50:22;;;;;;;17.88;12.20;;;;;;;;;;5073643;28;20067;-61
2023/06/17 00:52:51;;;;;;;18.42;11.93;;;;;;;;;;5073398;28;20388;-64
2023/06/17 00:55:17;;;;;;;17.27;12.63;;;;;;;;;;5072110;28;20409;-62
2023/06/17 00:57:47;;;;;;;18.40;12.73;;;;;;;;;;5073166;28;20078;-63
2023/06/17 01:00:14;;;;;;;18.67;12.00;;;;;;;;;;5072954;28;20031;-63
2023/06/17 01:02:43;;;;;;;17.60;12.13;;;;;;;;;;5073204;28;20500;-64
2023/06/17 01:05:12;;;;;;;20.58;13.18;;;;;;;;;;5072531;28;20028;-63
2023/06/17 01:08:02;;;;;;;19.52;13.15;;;;;;;;;;5072920;28;20081;-62
2023/06/17 01:10:51;;;;;;;17.10;11.95;;;;;;;;;;5065583;28;20040;-63
2023/06/17 01:13:18;;;;;;;17.58;12.43;;;;;;;;;;5064824;28;20459;-63
2023/06/17 01:15:44;;;;;;;17.13;11.98;;;;;;;;;;5063195;22;20502;-60
2023/06/17 01:18:11;;;;;;;18.80;12.50;;;;;;;;;;5034236;28;20045;-59
2023/06/17 01:20:37;;;;;;;18.63;12.07;;;;;;;;;;5034109;28;20032;-60
2023/06/17 01:23:05;;;;;;;19.95;13.15;;;;;;;;;;5033920;28;20018;-60
2023/06/17 01:25:31;;;;;;;18.02;12.52;;;;;;;;;;5033743;28;20030;-59
2023/06/17 01:28:00;;;;;;;17.70;12.18;;;;;;;;;;5034068;28;20025;-59
2023/06/17 01:30:30;;;;;;;20.60;11.75;;;;;;;;;;5016018;28;20429;-61
2023/06/17 01:32:59;;;;;;;17.38;11.40;;;;;;;;;;5033991;28;20025;-59
2023/06/17 01:35:28;;;;;;;17.83;11.85;;;;;;;;;;5014431;28;20482;-59
2023/06/17 01:37:58;;;;;;;19.48;12.48;;;;;;;;;;5015983;28;20029;-60
2023/06/17 01:40:25;;;;;;;17.35;12.25;;;;;;;;;;5015936;28;20041;-59
2023/06/17 01:42:52;;;;;;;18.25;11.93;;;;;;;;;;5016162;28;20022;-60
2023/06/17 01:45:19;;;;;;;18.77;12.70;;;;;;;;;;5015532;28;20598;-60
2023/06/17 01:47:45;;;;;;;19.45;12.35;;;;;;;;;;5016006;28;20018;-58
2023/06/17 01:50:11;;;;;;;17.33;12.25;;;;;;;;;;5033613;28;20033;-60
2023/06/17 01:52:37;;;;;;;18.48;11.75;;;;;;;;;;5033578;28;20025;-60
2023/06/17 01:55:04;;;;;;;18.67;11.60;;;;;;;;;;5033233;28;20087;-60
2023/06/17 01:57:30;;;;;;;19.70;12.32;;;;;;;;;;5033579;28;20090;-60
2023/06/17 01:59:56;;;;;;;19.10;12.13;;;;;;;;;;5033441;28;20022;-60
2023/06/17 02:02:23;;;;;;;18.27;12.00;;;;;;;;;;5033272;28;20135;-60
2023/06/17 02:04:50;;;;;;;18.95;12.38;;;;;;;;;;5032639;28;20056;-60
2023/06/17 02:07:17;;;;;;;19.85;11.73;;;;;;;;;;5033291;28;20485;-60
2023/06/17 02:09:43;;;;;;;18.90;11.93;;;;;;;;;;5033235;28;20028;-60
2023/06/17 02:12:11;;;;;;;20.52;12.70;;;;;;;;;;5033215;28;20018;-62
2023/06/17 02:14:37;;;;;;;20.90;11.80;;;;;;;;;;5032615;28;20033;-60
2023/06/17 02:17:03;;;;;;;17.30;12.00;;;;;;;;;;5033354;28;20021;-60
2023/06/17 02:19:31;;;;;;;19.65;12.45;;;;;;;;;;5032940;28;20025;-60
2023/06/17 02:21:57;;;;;;;;;;;;;;;;;;5033625;28;20080;-61
2023/06/17 02:24:23;;;;;;;19.95;11.57;;;;;;;;;;5032585;28;19913;-59
2023/06/17 02:26:50;;;;;;;19.52;12.75;;;;;;;;;;5015304;28;20028;-60
2023/06/17 02:29:16;;;;;;;18.77;12.32;;;;;;;;;;5032971;28;20120;-59
2023/06/17 02:31:42;;;;;;;20.90;12.32;;;;;;;;;;5032683;28;20094;-60
2023/06/17 02:34:09;;;;;;;19.58;12.73;;;;;;;;;;5032474;28;20021;-60
2023/06/17 02:36:37;;;;;;;21.20;13.48;;;;;;;;;;5015045;28;20485;-60
2023/06/17 02:39:03;;;;;;;21.30;12.32;;;;;;;;;;5032713;28;20029;-60
2023/06/17 02:41:29;;;;;;;20.25;12.70;;;;;;;;;;5014899;28;20029;-60
2023/06/17 02:43:55;;;;;;;19.92;12.75;;;;;;;;;;5032103;28;20025;-60
2023/06/17 02:46:21;;;;;;;20.58;12.25;;;;;;;;;;5031963;28;20045;-60
2023/06/17 02:48:47;;;;;;;18.95;12.07;;;;;;;;;;5032469;28;20516;-60
2023/06/17 02:51:13;;;;;;;21.65;12.52;;;;;;;;;;5032550;28;20022;-60
2023/06/17 02:53:39;;;;;;;19.38;12.40;;;;;;;;;;5014682;28;20029;-60
2023/06/17 02:56:05;;;;;;;20.42;12.60;;;;;;;;;;5032025;28;20045;-59
2023/06/17 02:58:31;;;;;;;20.77;12.18;;;;;;;;;;5014510;28;20056;-61
2023/06/17 03:00:57;;;;;;;18.25;11.68;;;;;;;;;;5039301;28;20025;-61
2023/06/17 03:03:33;;;;;;;19.45;11.82;;;;;;;;;;5051991;28;20031;-61
2023/06/17 03:06:01;;;;;;;19.52;11.98;;;;;;;;;;4994577;28;20390;-59
2023/06/17 03:08:27;;;;;;;19.58;12.18;;;;;;;;;;5039904;28;20098;-59
2023/06/17 03:10:53;;;;;;;20.80;12.40;;;;;;;;;;5052105;28;20023;-60
2023/06/17 03:13:19;;;;;;;20.20;13.38;;;;;;;;;;5052122;28;20396;-60
2023/06/17 03:15:45;;;;;;;20.42;13.48;;;;;;;;;;5033704;28;20032;-59
2023/06/17 03:18:12;;;;;;;17.83;12.15;;;;;;;;;;5052213;28;20032;-60
2023/06/17 03:20:38;;;;;;;20.30;11.75;;;;;;;;;;5051790;28;20021;-60
2023/06/17 03:23:04;;;;;;;21.98;13.07;;;;;;;;;;5051817;28;20024;-61
2023/06/17 03:25:31;;;;;;;19.40;12.05;;;;;;;;;;5051978;28;20033;-60
2023/06/17 03:28:00;;;;;;;20.85;12.13;;;;;;;;;;5051695;28;20075;-60
2023/06/17 03:30:26;;;;;;;19.15;12.13;;;;;;;;;;5051760;28;20013;-59
2023/06/17 03:32:53;;;;;;;19.63;12.10;;;;;;;;;;5033928;28;20120;-59
2023/06/17 03:35:20;;;;;;;19.92;12.38;;;;;;;;;;5051457;28;20104;-59
2023/06/17 03:37:46;;;;;;;20.58;12.48;;;;;;;;;;5033868;28;20029;-59
2023/06/17 03:40:13;;;;;;;20.08;12.60;;;;;;;;;;5051177;28;20028;-61
2023/06/17 03:42:39;;;;;;;20.92;12.45;;;;;;;;;;5033693;28;20051;-60
2023/06/17 03:45:05;;;;;;;20.85;12.95;;;;;;;;;;5051244;28;20485;-60
2023/06/17 03:47:31;;;;;;;19.00;12.73;;;;;;;;;;5051528;28;20025;-60
2023/06/17 03:49:57;;;;;;;19.58;12.57;;;;;;;;;;5051803;28;20044;-60
2023/06/17 03:52:23;;;;;;;20.73;12.90;;;;;;;;;;5051319;28;20472;-60
2023/06/17 03:54:50;;;;;;;19.67;12.40;;;;;;;;;;5050708;28;20182;-58
2023/06/17 03:57:16;;;;;;;21.50;13.00;;;;;;;;;;5033335;28;20025;-60
2023/06/17 03:59:42;;;;;;;21.27;12.70;;;;;;;;;;5055405;28;20025;-60
2023/06/17 04:02:08;;;;;;;18.30;12.57;;;;;;;;;;5055495;28;20385;-61
2023/06/17 04:04:34;;;;;;;19.05;12.68;;;;;;;;;;5055241;28;20065;-59
2023/06/17 04:07:02;;;;;;;23.40;12.82;;;;;;;;;;5037806;28;20548;-60
2023/06/17 04:09:28;;;;;;;22.92;14.15;;;;;;;;;;5055376;28;20103;-59
2023/06/17 04:11:54;;;;;;;19.83;13.45;;;;;;;;;;5037485;28;20052;-60
2023/06/17 04:14:19;;;;;;;21.55;12.90;;;;;;;;;;5054817;28;20033;-60
2023/06/17 04:16:45;;;;;;;20.35;13.55;;;;;;;;;;5037549;28;20060;-59
2023/06/17 04:19:13;;;;;;;24.08;14.13;;;;;;;;;;5055291;28;20036;-60
2023/06/17 04:21:39;;;;;;;19.20;13.68;;;;;;;;;;5055163;28;20017;-60
2023/06/17 04:24:05;;;;;;;20.17;13.50;;;;;;;;;;5054935;28;20461;-60
2023/06/17 04:26:32;;;;;;;19.90;13.50;;;;;;;;;;5037230;28;20050;-60
2023/06/17 04:29:00;;;;;;;20.20;13.20;;;;;;;;;;5055162;28;20029;-60
2023/06/17 04:31:27;;;;;;;21.42;13.50;;;;;;;;;;5037299;28;20476;-61
2023/06/17 04:33:53;;;;;;;18.70;12.65;;;;;;;;;;5037097;28;20040;-59
2023/06/17 04:36:21;;;;;;;20.95;13.98;;;;;;;;;;5054880;28;20029;-59
2023/06/17 04:38:51;;;;;;;22.13;14.63;;;;;;;;;;5055142;28;20527;-59
2023/06/17 04:41:17;;;;;;;20.20;14.35;;;;;;;;;;5055266;28;20505;-60
2023/06/17 04:43:48;;;;;;;22.38;13.52;;;;;;;;;;5054837;28;20025;-57
2023/06/17 04:46:16;;;;;;;22.77;14.95;;;;;;;;;;5036797;28;20021;-62
2023/06/17 04:48:43;;;;;;;19.17;14.18;;;;;;;;;;5054810;28;20078;-59
2023/06/17 04:51:10;;;;;;;22.88;14.38;;;;;;;;;;5054671;28;20053;-59
2023/06/17 04:53:39;;;;;;;20.73;14.10;;;;;;;;;;5036662;28;20033;-60
2023/06/17 04:56:09;;;;;;;23.35;15.10;;;;;;;;;;5054150;28;20032;-61
2023/06/17 04:58:35;;;;;;;22.80;16.00;;;;;;;;;;5054557;28;20025;-58
2023/06/17 05:01:01;;;;;;;23.42;14.90;;;;;;;;;;5054552;28;20155;-59
2023/06/17 05:03:27;;;;;;;20.83;14.68;;;;;;;;;;5054401;28;20029;-59
2023/06/17 05:05:53;;;;;;;21.38;14.20;;;;;;;;;;5054153;28;20083;-59
2023/06/17 05:08:19;;;;;;;19.83;14.30;;;;;;;;;;5054267;28;20032;-59
2023/06/17 05:10:45;;;;;;;24.77;15.70;;;;;;;;;;5054312;28;20025;-58
2023/06/17 05:13:11;;;;;;;22.55;15.27;;;;;;;;;;5054235;28;20029;-60
2023/06/17 05:15:37;;;;;;;23.13;15.07;;;;;;;;;;5053566;28;20032;-60
2023/06/17 05:18:03;;;;;;;22.25;14.80;;;;;;;;;;5054240;28;20017;-60
2023/06/17 05:20:29;;;;;;;21.92;15.15;;;;;;;;;;5054105;28;20029;-60
2023/06/17 05:22:55;;;;;;;21.35;15.38;;;;;;;;;;5054106;28;20045;-59
2023/06/17 05:25:21;;;;;;;23.60;15.15;;;;;;;;;;5053447;28;20041;-60
2023/06/17 05:27:48;;;;;;;24.02;15.68;;;;;;;;;;5053950;28;20603;-60
2023/06/17 05:30:14;;;;;;;21.52;16.20;;;;;;;;;;5053914;28;20035;-60
2023/06/17 05:32:40;;;;;;;22.25;15.15;;;;;;;;;;5036320;28;20432;-60
2023/06/17 05:35:06;;;;;;;21.42;15.85;;;;;;;;;;5053525;28;20025;-60
2023/06/17 05:37:32;;;;;;;22.67;15.80;;;;;;;;;;5053850;28;20405;-60
2023/06/17 05:39:58;;;;;;;21.42;15.05;;;;;;;;;;5053833;28;20057;-60
2023/06/17 05:42:24;;;;;;;20.58;15.23;;;;;;;;;;5035740;28;20060;-60
2023/06/17 05:44:50;;;;;;;20.35;15.18;;;;;;;;;;5053335;28;20426;-60
2023/06/17 05:47:16;;;;;;;21.15;15.13;;;;;;;;;;5035768;28;20059;-60
2023/06/17 05:49:43;;;;;;;24.17;14.90;;;;;;;;;;5053570;28;20036;-60
2023/06/17 05:52:10;;;;;;;26.60;16.90;;;;;;;;;;5053535;28;20017;-60
2023/06/17 05:54:38;;;;;;;21.98;14.73;;;;;;;;;;5035485;28;20029;-60
2023/06/17 05:57:04;;;;;;;21.65;16.02;;;;;;;;;;5053247;28;20033;-59
2023/06/17 05:59:30;;;;;;;23.75;15.98;;;;;;;;;;5053269;28;20039;-60
2023/06/17 06:01:56;;;;;;;23.17;15.95;;;;;;;;;;5053363;28;20396;-60
2023/06/17 06:04:22;;;;;;;23.17;15.38;;;;;;;;;;5052853;28;20025;-60
2023/06/17 06:06:48;;;;;;;21.55;15.98;;;;;;;;;;5053172;28;20043;-58
2023/06/17 06:09:14;;;;;;;21.35;14.93;;;;;;;;;;5053233;28;20056;-59
2023/06/17 06:11:40;;;;;;;24.10;16.73;;;;;;;;;;5053137;28;20063;-60
2023/06/17 06:14:06;;;;;;;20.75;15.07;;;;;;;;;;5053016;28;20108;-60
2023/06/17 06:16:32;;;;;;;21.52;15.30;;;;;;;;;;5053004;28;20049;-60
2023/06/17 06:18:58;;;;;;;20.77;14.65;;;;;;;;;;5052983;28;20100;-62
2023/06/17 06:21:24;;;;;;;22.80;14.95;;;;;;;;;;5052071;28;20041;-60
2023/06/17 06:23:50;;;;;;;21.65;15.35;;;;;;;;;;5052963;28;20070;-60
2023/06/17 06:26:16;;;;;;;20.25;14.88;;;;;;;;;;5034740;28;20021;-61
2023/06/17 06:28:42;;;;;;;20.95;14.90;;;;;;;;;;5044187;28;20029;-61
2023/06/17 06:31:08;;;;;;;21.38;14.52;;;;;;;;;;5043607;28;20021;-61
2023/06/17 06:33:35;;;;;;;22.70;15.13;;;;;;;;;;5050417;28;20028;-60
2023/06/17 06:36:01;;;;;;;21.52;15.43;;;;;;;;;;5052247;28;20056;-62
2023/06/17 06:38:27;;;;;;;24.80;16.08;;;;;;;;;;5043186;28;20409;-61
2023/06/17 06:40:53;;;;;;;21.15;15.35;;;;;;;;;;5052461;28;20033;-65
2023/06/17 06:43:19;;;;;;;20.92;15.70;;;;;;;;;;5034208;28;20508;-60
2023/06/17 06:45:45;;;;;;;22.73;16.30;;;;;;;;;;5044636;28;20018;-60
2023/06/17 06:48:12;;;;;;;23.42;16.08;;;;;;;;;;5038930;28;20025;-61
2023/06/17 06:50:38;;;;;;;22.52;15.23;;;;;;;;;;5052076;28;20032;-60
2023/06/17 06:53:04;;;;;;;20.10;15.90;;;;;;;;;;5034529;28;20029;-59
2023/06/17 06:55:30;;;;;;;22.63;14.68;;;;;;;;;;5034135;28;20124;-60
2023/06/17 06:57:56;;;;;;;24.80;15.73;;;;;;;;;;5048184;28;20139;-60
2023/06/17 07:00:22;;;;;;;20.30;14.82;;;;;;;;;;5051945;28;20047;-60
2023/06/17 07:02:48;;;;;;;21.23;14.68;;;;;;;;;;5048202;28;20495;-59
2023/06/17 07:05:15;;;;;;;22.27;14.93;;;;;;;;;;5034368;28;20039;-57
2023/06/17 07:07:41;;;;;;;18.38;13.73;;;;;;;;;;5034042;28;20017;-56
2023/06/17 07:10:07;;;;;;;19.55;14.20;;;;;;;;;;5051922;28;20029;-57
2023/06/17 07:12:33;;;;;;;19.40;13.80;;;;;;;;;;5051782;28;20037;-57
2023/06/17 07:14:59;;;;;;;20.08;14.35;;;;;;;;;;5051407;28;20076;-58
2023/06/17 07:17:25;;;;;;;21.08;14.90;;;;;;;;;;5052856;28;20135;-58
2023/06/17 07:19:51;;;;;;;22.02;15.10;;;;;;;;;;5051669;28;20043;-55
2023/06/17 07:22:17;;;;;;;18.70;14.65;;;;;;;;;;5033896;28;20087;-57
2023/06/17 07:24:43;;;;;;;19.55;15.02;;;;;;;;;;5051606;28;20032;-55
2023/06/17 07:27:09;;;;;;;19.55;14.73;;;;;;;;;;5051600;28;20465;-57
2023/06/17 07:29:35;;;;;;;20.33;14.52;;;;;;;;;;5048904;28;20027;-58
2023/06/17 07:32:01;;;;;;;22.83;15.20;;;;;;;;;;5031567;28;20104;-63
2023/06/17 07:34:27;;;;;;;19.40;15.38;;;;;;;;;;5031127;28;20029;-60
2023/06/17 07:36:53;;;;;;;19.77;16.25;;;;;;;;;;5031375;28;20026;-59
2023/06/17 07:39:20;;;;;;;21.40;15.32;;;;;;;;;;5031324;28;20055;-60
2023/06/17 07:41:46;;;;;;;20.67;15.82;;;;;;;;;;5013640;28;20025;-58
2023/06/17 07:44:12;;;;;;;20.70;15.85;;;;;;;;;;5031115;28;20447;-61
2023/06/17 07:46:38;;;;;;;21.48;15.93;;;;;;;;;;5031428;28;20060;-59
2023/06/17 07:49:04;;;;;;;19.35;15.82;;;;;;;;;;5031168;28;20044;-59
2023/06/17 07:51:30;;;;;;;21.23;16.20;;;;;;;;;;5024460;28;20017;-57
2023/06/17 07:53:56;;;;;;;20.95;16.15;;;;;;;;;;5038372;28;20478;-59
2023/06/17 07:56:29;;;;;;;20.95;15.73;;;;;;;;;;5047099;28;20075;-60
2023/06/17 07:58:55;;;;;;;20.92;16.50;;;;;;;;;;5033165;28;20032;-60
2023/06/17 08:01:22;;;;;;;20.48;15.40;;;;;;;;;;5051062;28;20477;-61
2023/06/17 08:03:48;;;;;;;20.85;16.88;;;;;;;;;;5029336;28;20068;-56
2023/06/17 08:06:14;;;;;;;20.33;16.48;;;;;;;;;;5031972;28;20098;-61
2023/06/17 08:08:41;;;;;;;20.85;16.17;;;;;;;;;;5033159;28;20017;-61
2023/06/17 08:11:07;;;;;;;20.65;16.38;;;;;;;;;;5050783;28;20469;-56
2023/06/17 08:13:33;;;;;;;21.15;15.50;;;;;;;;;;5046964;28;20052;-59
2023/06/17 08:15:59;;;;;;;21.13;16.20;;;;;;;;;;5050364;28;20074;-60
2023/06/17 08:18:25;;;;;;;21.83;16.58;;;;;;;;;;5049240;28;20096;-59
2023/06/17 08:20:51;;;;;;;22.77;16.30;;;;;;;;;;5049239;28;20088;-58
2023/06/17 08:23:17;;;;;;;20.42;15.98;;;;;;;;;;5050455;28;20033;-58
2023/06/17 08:25:43;;;;;;;19.08;15.50;;;;;;;;;;5050288;28;20025;-60
2023/06/17 08:28:09;;;;;;;20.50;16.23;;;;;;;;;;5050707;28;20032;-59
2023/06/17 08:30:35;;;;;;;19.38;15.82;;;;;;;;;;5025670;28;20021;-60
2023/06/17 08:33:01;;;;;;;22.23;15.40;;;;;;;;;;5030564;28;20025;-60
2023/06/17 08:35:27;;;;;;;24.50;16.35;;;;;;;;;;5030684;28;20049;-60
2023/06/17 08:37:53;;;;;;;20.58;16.10;;;;;;;;;;5030888;28;20040;-59
2023/06/17 08:40:21;;;;;;;23.63;15.95;;;;;;;;;;5030790;28;20067;-59
2023/06/17 08:42:48;;;;;;;20.75;15.13;;;;;;;;;;5030936;28;20504;-58
2023/06/17 08:45:14;;;;;;;19.85;15.48;;;;;;;;;;5015809;28;20406;-60
2023/06/17 08:47:42;;;;;;;20.80;16.10;;;;;;;;;;5034696;28;20137;-60
2023/06/17 08:50:09;;;;;;;19.83;15.68;;;;;;;;;;5016792;28;20045;-61
2023/06/17 08:52:36;;;;;;;20.48;15.70;;;;;;;;;;5034628;28;20033;-60
2023/06/17 08:55:03;;;;;;;19.55;15.35;;;;;;;;;;5034240;28;20056;-57
2023/06/17 08:57:29;;;;;;;20.10;15.80;;;;;;;;;;5034700;28;20461;-61
2023/06/17 08:59:55;;;;;;;19.85;15.07;;;;;;;;;;5034504;28;20374;-59
2023/06/17 09:02:22;;;;;;;19.50;15.25;;;;;;;;;;5034343;28;20033;-60
2023/06/17 09:04:49;;;;;;;20.30;15.50;;;;;;;;;;5033836;28;20025;-57
2023/06/17 09:07:15;;;;;;;19.98;15.60;;;;;;;;;;5034536;28;20085;-60
2023/06/17 09:09:48;;;;;;;19.73;15.40;;;;;;;;;;5034358;28;20159;-60
2023/06/17 09:12:14;;;;;;;18.85;15.45;;;;;;;;;;5040480;28;20434;-57
2023/06/17 09:14:43;;;;;;;20.63;16.20;;;;;;;;;;5049539;28;20033;-60
2023/06/17 09:17:09;;;;;;;21.00;16.38;;;;;;;;;;5054710;28;20025;-57
2023/06/17 09:19:39;;;;;;;19.33;15.50;;;;;;;;;;5053974;28;20091;-57
2023/06/17 09:22:08;;;;;;;20.23;15.52;;;;;;;;;;5053802;28;20079;-58
2023/06/17 09:24:36;;;;;;;20.27;16.35;;;;;;;;;;5035371;28;20559;-60
2023/06/17 09:27:02;;;;;;;19.45;15.77;;;;;;;;;;5049803;28;20017;-58
2023/06/17 09:29:31;;;;;;;22.15;16.05;;;;;;;;;;5052891;28;20024;-60
2023/06/17 09:31:58;;;;;;;23.50;16.42;;;;;;;;;;5030204;28;20028;-61
2023/06/17 09:34:26;;;;;;;18.98;15.25;;;;;;;;;;5035762;28;20029;-59
2023/06/17 09:36:54;;;;;;;21.52;15.77;;;;;;;;;;5035978;28;20036;-58
2023/06/17 09:39:28;;;;;;;20.98;16.58;;;;;;;;;;5053813;28;20505;-60
2023/06/17 09:41:56;;;;;;;19.17;15.52;;;;;;;;;;5053552;28;20403;-60
2023/06/17 09:44:22;;;;;;;19.20;16.08;;;;;;;;;;5053238;28;20032;-61
2023/06/17 09:46:50;;;;;;;21.23;16.48;;;;;;;;;;5048920;28;20029;-59
2023/06/17 09:49:23;;;;;;;21.30;16.42;;;;;;;;;;5053572;28;20028;-61
2023/06/17 09:51:51;;;;;;;20.40;15.57;;;;;;;;;;5053484;28;20079;-61
2023/06/17 09:54:18;;;;;;;21.13;15.35;;;;;;;;;;5035210;28;20029;-57
2023/06/17 09:56:45;;;;;;;19.10;15.75;;;;;;;;;;5030559;28;20086;-61
2023/06/17 09:59:12;;;;;;;21.45;15.45;;;;;;;;;;5052873;28;20538;-61
2023/06/17 10:01:39;;;;;;;20.30;15.02;;;;;;;;;;5052911;28;20030;-61
2023/06/17 10:04:06;;;;;;;17.85;14.85;;;;;;;;;;5052496;28;20104;-60
2023/06/17 10:06:34;;;;;;;21.05;15.52;;;;;;;;;;5052890;28;20485;-61
2023/06/17 10:09:01;;;;;;;18.58;15.07;;;;;;;;;;5035547;28;20362;-61
2023/06/17 10:11:28;;;;;;;19.25;15.65;;;;;;;;;;5053148;28;20036;-61
2023/06/17 10:13:56;;;;;;;20.15;15.60;;;;;;;;;;5033056;28;20021;-61
2023/06/17 10:16:25;;;;;;;20.15;15.48;;;;;;;;;;5034665;28;20037;-61
2023/06/17 10:18:52;;;;;;;17.77;14.35;;;;;;;;;;5035077;28;20473;-61
2023/06/17 10:21:19;;;;;;;18.27;15.32;;;;;;;;;;5052741;28;20036;-62
2023/06/17 10:23:47;;;;;;;18.08;14.40;;;;;;;;;;5034643;28;20025;-61
2023/06/17 10:26:13;;;;;;;19.10;14.33;;;;;;;;;;5034346;28;20119;-61
2023/06/17 10:28:57;;;;;;;22.13;15.25;;;;;;;;;;5052781;28;20287;-62
2023/06/17 10:31:27;;;;;;;19.83;14.90;;;;;;;;;;5021808;28;20017;-63
2023/06/17 10:33:54;;;;;;;18.95;14.82;;;;;;;;;;5032520;28;20029;-61
2023/06/17 10:36:21;;;;;;;19.92;14.73;;;;;;;;;;5014676;28;20026;-62
2023/06/17 10:38:57;;;;;;;21.38;14.88;;;;;;;;;;5014922;28;20029;-63
2023/06/17 10:41:28;;;;;;;20.23;15.40;;;;;;;;;;5032398;28;20029;-63
2023/06/17 10:43:55;;;;;;;18.30;15.20;;;;;;;;;;5032138;28;20117;-63
2023/06/17 10:46:25;;;;;;;19.08;14.95;;;;;;;;;;5014642;28;20045;-62
2023/06/17 10:48:51;;;;;;;18.25;15.15;;;;;;;;;;5046744;28;20021;-60
2023/06/17 10:51:19;;;;;;;18.80;15.65;;;;;;;;;;5052107;28;20074;-61
2023/06/17 10:53:50;;;;;;;19.05;15.60;;;;;;;;;;5051923;28;20450;-60
2023/06/17 10:56:16;;;;;;;18.30;14.23;;;;;;;;;;5051541;28;20481;-60
2023/06/17 10:58:46;;;;;;;20.70;16.20;;;;;;;;;;5052063;28;20096;-62
2023/06/17 11:01:12;;;;;;;17.88;14.98;;;;;;;;;;5051998;28;20033;-60
2023/06/17 11:03:38;;;;;;;19.55;15.60;;;;;;;;;;5033534;28;20357;-63
2023/06/17 11:06:06;;;;;;;19.58;14.20;;;;;;;;;;5051564;28;20021;-60
2023/06/17 11:08:33;;;;;;;19.70;15.20;;;;;;;;;;5051709;28;20040;-62
2023/06/17 11:11:11;;;;;;;19.20;15.70;;;;;;;;;;5051835;28;20362;-59
2023/06/17 11:13:37;;;;;;;;;;;;;;;;;;5052233;28;20032;-63
2023/06/17 11:16:03;;;;;;;20.63;15.10;;;;;;;;;;5051338;28;19912;-61
2023/06/17 11:18:29;;;;;;;21.60;15.15;;;;;;;;;;5051818;28;20130;-60
2023/06/17 11:20:55;;;;;;;19.05;14.93;;;;;;;;;;5051614;28;20048;-62
2023/06/17 11:23:21;;;;;;;18.50;14.25;;;;;;;;;;5051441;28;20063;-62
2023/06/17 11:25:51;;;;;;;17.90;14.18;;;;;;;;;;5051280;28;20082;-61
2023/06/17 11:28:17;;;;;;;18.42;14.50;;;;;;;;;;5051348;28;20025;-62
2023/06/17 11:30:43;;;;;;;18.60;14.60;;;;;;;;;;5025878;28;20076;-61
2023/06/17 11:33:09;;;;;;;18.27;14.80;;;;;;;;;;5031700;28;20100;-62
2023/06/17 11:35:35;;;;;;;19.08;15.27;;;;;;;;;;5031220;28;20030;-63
2023/06/17 11:38:02;;;;;;;18.42;15.13;;;;;;;;;;5031514;28;20029;-62
2023/06/17 11:40:28;;;;;;;18.60;15.18;;;;;;;;;;5013611;28;20096;-61
2023/06/17 11:42:56;;;;;;;21.65;14.60;;;;;;;;;;5031057;28;20390;-61
2023/06/17 11:45:22;;;;;;;19.85;15.65;;;;;;;;;;5013202;28;20119;-60
2023/06/17 11:47:48;;;;;;;18.67;14.52;;;;;;;;;;5031408;28;20540;-62
2023/06/17 11:50:14;;;;;;;17.88;14.88;;;;;;;;;;5031427;28;20017;-63
2023/06/17 11:52:40;;;;;;;17.83;14.38;;;;;;;;;;5031156;28;20401;-63
2023/06/17 11:55:12;;;;;;;20.77;15.68;;;;;;;;;;5030912;28;20105;-63
2023/06/17 11:57:38;;;;;;;18.70;15.05;;;;;;;;;;5031277;28;20049;-62
2023/06/17 12:00:09;;;;;;;18.75;14.82;;;;;;;;;;5013507;28;20099;-61
2023/06/17 12:02:35;;;;;;;19.67;15.32;;;;;;;;;;5013618;28;20117;-64
2023/06/17 12:05:04;;;;;;;17.48;14.55;;;;;;;;;;5031048;28;20096;-63
2023/06/17 12:07:38;;;;;;;19.20;14.90;;;;;;;;;;5013369;28;20148;-63
2023/06/17 12:10:05;;;;;;;18.02;14.93;;;;;;;;;;5031157;28;20018;-59
2023/06/17 12:12:40;;;;;;;17.38;14.75;;;;;;;;;;5031377;28;20486;-61
2023/06/17 12:15:06;;;;;;;17.50;14.90;;;;;;;;;;5030455;28;20037;-64
2023/06/17 12:17:41;;;;;;;17.30;14.98;;;;;;;;;;5030928;28;20022;-64
2023/06/17 12:20:21;;;;;;;17.70;14.95;;;;;;;;;;5015995;28;20025;-63
2023/06/17 12:22:48;;;;;;;18.25;14.85;;;;;;;;;;5034882;28;20392;-63
2023/06/17 12:25:14;;;;;;;18.05;15.30;;;;;;;;;;5034664;28;20025;-64
2023/06/17 12:27:42;;;;;;;19.15;14.88;;;;;;;;;;5034578;28;20068;-63
2023/06/17 12:30:08;;;;;;;;;;;;;;;;;;5012737;28;20029;-63
2023/06/17 12:32:34;;;;;;;18.02;14.93;;;;;;;;;;5034568;28;20377;-63
2023/06/17 12:35:00;;;;;;;19.35;15.57;;;;;;;;;;5034274;28;20029;-63
2023/06/17 12:37:27;;;;;;;19.00;15.82;;;;;;;;;;5034410;28;20029;-63
2023/06/17 12:39:54;;;;;;;19.52;15.57;;;;;;;;;;5034747;28;20029;-63
2023/06/17 12:42:21;;;;;;;19.13;15.40;;;;;;;;;;5034491;28;20025;-63
2023/06/17 12:44:47;;;;;;;19.35;15.75;;;;;;;;;;5034076;28;20038;-63
2023/06/17 12:47:14;;;;;;;18.25;15.52;;;;;;;;;;5033996;28;20029;-63
2023/06/17 12:49:40;;;;;;;18.42;15.75;;;;;;;;;;5052548;28;20353;-62
2023/06/17 12:52:06;;;;;;;18.90;15.32;;;;;;;;;;5053747;28;20096;-63
2023/06/17 12:54:32;;;;;;;18.48;15.38;;;;;;;;;;5052826;28;20021;-62
2023/06/17 12:56:58;;;;;;;17.10;14.80;;;;;;;;;;5048147;28;20032;-62
2023/06/17 12:59:24;;;;;;;18.63;14.27;;;;;;;;;;5042333;28;20017;-62
2023/06/17 13:01:50;;;;;;;19.52;15.70;;;;;;;;;;5050086;28;20081;-64
2023/06/17 13:04:16;;;;;;;19.50;16.00;;;;;;;;;;5015695;28;20072;-63
2023/06/17 13:06:44;;;;;;;18.83;15.02;;;;;;;;;;5024903;28;20037;-63
2023/06/17 13:09:10;;;;;;;18.20;14.45;;;;;;;;;;5033440;28;20037;-63
2023/06/17 13:11:36;;;;;;;18.42;15.32;;;;;;;;;;5033594;28;20049;-63
2023/06/17 13:14:03;;;;;;;18.98;15.60;;;;;;;;;;5053181;28;20032;-63
2023/06/17 13:16:29;;;;;;;18.13;15.20;;;;;;;;;;5054826;28;20029;-63
2023/06/17 13:18:56;;;;;;;17.77;15.70;;;;;;;;;;5037846;28;20397;-62
2023/06/17 13:21:22;;;;;;;18.70;16.00;;;;;;;;;;5049933;28;20036;-63
2023/06/17 13:23:49;;;;;;;17.63;15.10;;;;;;;;;;5053398;28;20393;-64
2023/06/17 13:26:17;;;;;;;19.73;16.02;;;;;;;;;;5050122;28;20464;-64
2023/06/17 13:28:43;;;;;;;17.92;15.55;;;;;;;;;;5013971;28;20455;-63
2023/06/17 13:31:09;;;;;;;18.23;15.35;;;;;;;;;;5026607;28;20033;-62
2023/06/17 13:33:36;;;;;;;17.55;15.10;;;;;;;;;;5018697;28;20081;-62
2023/06/17 13:36:02;;;;;;;18.40;16.40;;;;;;;;;;5018512;28;20053;-62
2023/06/17 13:38:28;;;;;;;19.98;16.15;;;;;;;;;;5012433;28;20018;-62
2023/06/17 13:40:54;;;;;;;21.77;15.85;;;;;;;;;;5032617;28;20028;-62
2023/06/17 13:43:20;;;;;;;18.85;14.88;;;;;;;;;;5000373;28;20398;-62
2023/06/17 13:45:46;;;;;;;17.67;14.82;;;;;;;;;;5032318;28;20439;-61
2023/06/17 13:48:12;;;;;;;17.85;15.27;;;;;;;;;;5031582;28;20056;-62
2023/06/17 13:50:38;;;;;;;18.42;15.27;;;;;;;;;;5011067;28;20025;-61
2023/06/17 13:53:04;;;;;;;18.48;15.45;;;;;;;;;;5033195;28;20021;-62
2023/06/17 13:55:31;;;;;;;19.23;15.13;;;;;;;;;;5032952;28;20065;-64
2023/06/17 13:57:58;;;;;;;18.90;15.17;;;;;;;;;;5046786;28;20028;-62
2023/06/17 14:00:24;;;;;;;18.55;15.50;;;;;;;;;;5052775;28;20388;-61
2023/06/17 14:02:50;;;;;;;18.08;15.75;;;;;;;;;;5052785;28;20162;-61
2023/06/17 14:05:16;;;;;;;18.10;15.60;;;;;;;;;;5052568;28;20483;-60
2023/06/17 14:07:42;;;;;;;18.75;16.08;;;;;;;;;;5052985;28;20025;-62
2023/06/17 14:10:08;;;;;;;19.17;15.73;;;;;;;;;;5034939;28;20056;-61
2023/06/17 14:12:35;;;;;;;18.00;15.60;;;;;;;;;;5052813;28;20075;-61
2023/06/17 14:15:01;;;;;;;18.55;15.32;;;;;;;;;;5052285;28;20036;-62
2023/06/17 14:17:27;;;;;;;18.25;15.85;;;;;;;;;;5052861;28;20028;-62